createdAt,value
2023-11-30T00:01:04.447Z,4.20
2023-11-30T00:03:06.130Z,4.70
2023-11-30T00:05:08.546Z,4.88
2023-11-30T00:07:10.097Z,5.18
2023-11-30T00:09:13.012Z,5.10
2023-11-30T00:11:14.649Z,5.15
2023-11-30T00:13:16.183Z,5.55
2023-11-30T00:15:17.726Z,3.70
2023-11-30T00:17:19.321Z,4.45
2023-11-30T00:19:20.832Z,5.30
2023-11-30T00:21:22.822Z,4.70
2023-11-30T00:23:24.354Z,4.45
2023-11-30T00:25:27.219Z,5.10
2023-11-30T00:27:28.801Z,5.13
2023-11-30T00:29:30.334Z,4.97
2023-11-30T00:31:32.200Z,4.88
2023-11-30T00:33:33.979Z,5.15
2023-11-30T00:35:35.517Z,5.30
2023-11-30T00:37:37.030Z,4.97
2023-11-30T00:39:38.540Z,5.75
2023-11-30T00:41:41.494Z,4.75
2023-11-30T00:43:43.650Z,5.03
2023-11-30T00:45:46.220Z,5.30
2023-11-30T00:47:49.947Z,5.00
2023-11-30T00:49:51.536Z,5.53
2023-11-30T00:51:53.078Z,5.63
2023-11-30T00:53:54.681Z,5.60
2023-11-30T00:55:56.267Z,4.80
2023-11-30T00:57:59.125Z,5.35
2023-11-30T01:00:00.710Z,4.97
2023-11-30T01:02:02.356Z,5.63
2023-11-30T01:04:04.056Z,5.80
2023-11-30T01:06:06.073Z,5.70
2023-11-30T01:08:07.612Z,4.40
2023-11-30T01:10:09.630Z,4.95
2023-11-30T01:12:11.521Z,4.65
2023-11-30T01:14:14.411Z,5.32
2023-11-30T01:16:15.964Z,5.93
2023-11-30T01:18:17.702Z,4.95
2023-11-30T01:20:19.289Z,5.47
2023-11-30T01:22:21.070Z,5.32
2023-11-30T01:24:22.643Z,5.30
2023-11-30T01:26:24.502Z,5.72
2023-11-30T01:28:26.032Z,5.35
2023-11-30T01:30:28.962Z,5.40
2023-11-30T01:32:30.549Z,5.85
2023-11-30T01:34:32.072Z,5.47
2023-11-30T01:36:33.642Z,5.55
2023-11-30T01:38:35.213Z,6.07
2023-11-30T01:40:36.760Z,4.03
2023-11-30T01:42:38.779Z,5.10
2023-11-30T01:44:40.342Z,5.10
2023-11-30T01:46:43.339Z,5.35
2023-11-30T01:48:45.532Z,4.50
2023-11-30T01:50:47.427Z,5.68
2023-11-30T01:52:49.014Z,5.30
2023-11-30T01:54:50.914Z,5.40
2023-11-30T01:56:53.499Z,5.32
2023-11-30T01:58:55.709Z,4.45
2023-11-30T02:00:59.022Z,5.70
2023-11-30T02:03:02.429Z,3.88
2023-11-30T02:05:04.313Z,5.10
2023-11-30T02:07:05.866Z,5.55
2023-11-30T02:09:07.442Z,5.47
2023-11-30T02:11:09.205Z,6.30
2023-11-30T02:13:10.940Z,8.20
2023-11-30T02:15:12.457Z,5.07
2023-11-30T02:17:14.137Z,5.25
2023-11-30T02:19:17.093Z,5.60
2023-11-30T02:21:18.712Z,5.18
2023-11-30T02:23:21.647Z,5.45
2023-11-30T02:25:23.152Z,5.85
2023-11-30T02:27:24.723Z,5.18
2023-11-30T02:29:26.264Z,5.72
2023-11-30T02:31:27.794Z,5.28
2023-11-30T02:33:29.383Z,4.72
2023-11-30T02:35:30.923Z,6.85
2023-11-30T02:37:32.481Z,5.10
2023-11-30T02:39:35.355Z,5.45
2023-11-30T02:41:36.890Z,4.97
2023-11-30T02:43:38.429Z,5.63
2023-11-30T02:45:40.415Z,5.68
2023-11-30T02:47:41.970Z,5.22
2023-11-30T02:49:43.513Z,5.00
2023-11-30T02:51:45.073Z,5.00
2023-11-30T02:53:46.604Z,4.15
2023-11-30T02:55:49.481Z,5.85
2023-11-30T02:57:51.078Z,6.28
2023-11-30T02:59:52.636Z,5.97
2023-11-30T03:01:54.256Z,6.72
2023-11-30T03:03:55.835Z,5.43
2023-11-30T03:05:57.382Z,5.80
2023-11-30T03:07:58.920Z,5.88
2023-11-30T03:10:00.511Z,5.78
2023-11-30T03:12:03.814Z,5.40
2023-11-30T03:14:05.401Z,5.95
2023-11-30T03:16:07.643Z,6.70
2023-11-30T03:18:09.213Z,5.43
2023-11-30T03:20:12.132Z,5.30
2023-11-30T03:22:13.677Z,5.35
2023-11-30T03:24:15.361Z,5.30
2023-11-30T03:26:17.153Z,5.65
2023-11-30T03:28:19.990Z,5.22
2023-11-30T03:30:21.612Z,5.53
2023-11-30T03:32:23.220Z,5.97
2023-11-30T03:34:24.730Z,4.93
2023-11-30T03:36:26.525Z,6.30
2023-11-30T03:38:28.222Z,6.43
2023-11-30T03:40:29.734Z,5.35
2023-11-30T03:42:31.330Z,5.70
2023-11-30T03:44:34.226Z,5.20
2023-11-30T03:46:36.882Z,5.22
2023-11-30T03:48:38.459Z,5.38
2023-11-30T03:50:39.988Z,6.55
2023-11-30T03:52:41.567Z,7.20
2023-11-30T03:54:43.128Z,6.50
2023-11-30T03:56:44.653Z,5.95
2023-11-30T03:58:46.185Z,6.15
2023-11-30T04:00:49.085Z,6.18
2023-11-30T04:02:50.769Z,6.20
2023-11-30T04:04:52.446Z,6.35
2023-11-30T04:06:53.986Z,6.43
2023-11-30T04:08:55.687Z,6.32
2023-11-30T04:10:57.257Z,5.65
2023-11-30T04:12:58.781Z,5.78
2023-11-30T04:15:00.459Z,6.53
2023-11-30T04:17:04.845Z,5.88
2023-11-30T04:19:06.564Z,5.60
2023-11-30T04:21:09.119Z,6.40
2023-11-30T04:23:10.662Z,6.18
2023-11-30T04:25:12.270Z,6.20
2023-11-30T04:27:13.785Z,5.53
2023-11-30T04:29:15.317Z,5.90
2023-11-30T04:31:16.849Z,5.68
2023-11-30T04:33:19.853Z,6.03
2023-11-30T04:35:21.459Z,5.65
2023-11-30T04:37:23.021Z,5.65
2023-11-30T04:39:25.628Z,5.07
2023-11-30T04:41:27.249Z,4.72
2023-11-30T04:43:28.795Z,6.28
2023-11-30T04:45:30.487Z,6.40
2023-11-30T04:47:32.147Z,7.20
2023-11-30T04:49:35.079Z,4.90
2023-11-30T04:51:36.643Z,5.63
2023-11-30T04:53:38.190Z,5.78
2023-11-30T04:55:39.732Z,6.75
2023-11-30T04:57:41.320Z,6.50
2023-11-30T04:59:42.839Z,5.35
2023-11-30T05:01:45.674Z,6.63
2023-11-30T05:03:47.442Z,5.70
2023-11-30T05:05:50.470Z,5.63
2023-11-30T05:07:52.048Z,6.03
2023-11-30T05:09:53.571Z,5.68
2023-11-30T05:11:55.211Z,6.45
2023-11-30T05:13:56.758Z,6.45
2023-11-30T05:15:58.319Z,6.15
2023-11-30T05:17:59.929Z,6.38
2023-11-30T05:20:01.470Z,6.70
2023-11-30T05:22:04.821Z,4.95
2023-11-30T05:24:06.595Z,5.78
2023-11-30T05:26:08.365Z,6.03
2023-11-30T05:28:09.933Z,5.82
2023-11-30T05:30:11.954Z,6.68
2023-11-30T05:32:13.544Z,6.40
2023-11-30T05:34:15.044Z,6.22
2023-11-30T05:36:16.678Z,6.53
2023-11-30T05:38:19.673Z,5.82
2023-11-30T05:40:21.306Z,6.15
2023-11-30T05:42:22.902Z,5.38
2023-11-30T05:44:24.437Z,4.95
2023-11-30T05:46:25.976Z,6.28
2023-11-30T05:48:27.563Z,5.63
2023-11-30T05:50:29.079Z,5.60
2023-11-30T05:52:30.608Z,5.20
2023-11-30T05:54:33.531Z,5.57
2023-11-30T05:56:35.300Z,4.90
2023-11-30T05:58:37.680Z,5.93
2023-11-30T06:00:39.222Z,5.22
2023-11-30T06:02:40.939Z,5.07
2023-11-30T06:04:50.146Z,6.20
2023-11-30T06:06:51.699Z,6.03
2023-11-30T06:08:53.283Z,5.90
2023-11-30T06:10:56.174Z,6.32
2023-11-30T06:12:57.773Z,5.10
2023-11-30T06:14:59.391Z,5.45
2023-11-30T06:17:01.079Z,5.00
2023-11-30T06:19:02.697Z,6.20
2023-11-30T06:21:08.723Z,5.10
2023-11-30T06:23:10.346Z,5.82
2023-11-30T06:25:11.893Z,5.45
2023-11-30T06:27:14.878Z,6.55
2023-11-30T06:29:16.401Z,5.70
2023-11-30T06:31:17.990Z,4.53
2023-11-30T06:33:19.805Z,6.63
2023-11-30T06:35:21.925Z,5.30
2023-11-30T06:37:23.524Z,5.63
2023-11-30T06:39:25.480Z,4.78
2023-11-30T06:41:27.020Z,5.78
2023-11-30T06:43:29.955Z,5.28
2023-11-30T06:45:31.647Z,5.65
2023-11-30T06:47:33.192Z,5.53
2023-11-30T06:49:34.677Z,5.95
2023-11-30T06:51:36.292Z,6.03
2023-11-30T06:53:37.814Z,5.28
2023-11-30T06:55:39.346Z,6.20
2023-11-30T06:57:40.888Z,5.97
2023-11-30T06:59:43.826Z,5.65
2023-11-30T07:01:45.411Z,5.85
2023-11-30T07:03:47.475Z,6.72
2023-11-30T07:05:49.196Z,5.65
2023-11-30T07:07:50.727Z,6.65
2023-11-30T07:09:52.217Z,6.45
2023-11-30T07:11:53.713Z,4.85
2023-11-30T07:13:55.340Z,5.60
2023-11-30T07:15:58.294Z,7.05
2023-11-30T07:17:59.936Z,5.70
2023-11-30T07:20:01.584Z,6.60
2023-11-30T07:22:03.291Z,6.25
2023-11-30T07:24:05.577Z,6.13
2023-11-30T07:26:11.016Z,6.25
2023-11-30T07:28:12.512Z,7.35
2023-11-30T07:30:14.296Z,5.55
2023-11-30T07:32:17.352Z,6.20
2023-11-30T07:34:18.932Z,5.95
2023-11-30T07:36:20.492Z,7.13
2023-11-30T07:38:22.092Z,5.32
2023-11-30T07:40:23.599Z,5.50
2023-11-30T07:42:29.928Z,6.20
2023-11-30T07:44:36.830Z,5.53
2023-11-30T07:46:38.354Z,5.88
2023-11-30T07:48:41.368Z,5.93
2023-11-30T07:50:42.891Z,5.90
2023-11-30T07:52:44.407Z,5.45
2023-11-30T07:54:45.920Z,4.97
2023-11-30T07:56:47.487Z,5.68
2023-11-30T07:58:49.030Z,5.60
2023-11-30T08:00:51.303Z,5.47
2023-11-30T08:02:52.866Z,5.75
2023-11-30T08:04:55.814Z,5.70
2023-11-30T08:06:57.347Z,6.47
2023-11-30T08:08:58.834Z,6.28
2023-11-30T08:11:01.957Z,5.78
2023-11-30T08:13:04.172Z,6.80
2023-11-30T08:15:06.813Z,5.63
2023-11-30T08:17:08.403Z,6.00
2023-11-30T08:19:10.021Z,6.07
2023-11-30T08:21:13.002Z,6.90
2023-11-30T08:23:14.639Z,6.20
2023-11-30T08:25:17.061Z,5.13
2023-11-30T08:27:18.632Z,5.65
2023-11-30T08:29:20.138Z,6.25
2023-11-30T08:31:21.712Z,6.07
2023-11-30T08:33:23.314Z,5.72
2023-11-30T08:35:24.827Z,6.90
2023-11-30T08:37:27.698Z,6.53
2023-11-30T08:39:29.367Z,6.13
2023-11-30T08:41:31.088Z,6.80
2023-11-30T08:43:32.602Z,6.70
2023-11-30T08:45:34.211Z,5.78
2023-11-30T08:47:35.815Z,6.70
2023-11-30T08:49:37.334Z,6.90
2023-11-30T08:51:39.334Z,6.82
2023-11-30T08:53:42.565Z,5.32
2023-11-30T08:55:44.480Z,6.72
2023-11-30T08:57:46.109Z,6.65
2023-11-30T08:59:47.731Z,7.15
2023-11-30T09:01:49.317Z,6.65
2023-11-30T09:03:53.364Z,6.13
2023-11-30T09:05:54.965Z,7.18
2023-11-30T09:07:56.536Z,6.07
2023-11-30T09:09:59.589Z,7.03
2023-11-30T09:12:01.149Z,6.50
2023-11-30T09:14:02.677Z,7.10
2023-11-30T09:16:04.680Z,6.35
2023-11-30T09:18:06.444Z,6.50
2023-11-30T09:20:08.954Z,6.47
2023-11-30T09:22:10.674Z,6.95
2023-11-30T09:24:12.300Z,7.28
2023-11-30T09:26:15.299Z,8.20
2023-11-30T09:28:16.847Z,7.00
2023-11-30T09:30:18.664Z,6.95
2023-11-30T09:32:20.188Z,5.35
2023-11-30T09:34:21.701Z,7.35
2023-11-30T09:36:23.289Z,6.10
2023-11-30T09:38:24.828Z,7.05
2023-11-30T09:40:26.432Z,7.22
2023-11-30T09:42:29.444Z,7.57
2023-11-30T09:44:32.076Z,8.13
2023-11-30T09:46:33.717Z,7.68
2023-11-30T09:48:35.374Z,7.35
2023-11-30T09:50:37.136Z,7.32
2023-11-30T09:52:38.954Z,8.35
2023-11-30T09:54:40.786Z,8.15
2023-11-30T09:56:42.413Z,6.60
2023-11-30T09:58:45.281Z,6.90
2023-11-30T10:00:46.891Z,7.40
2023-11-30T10:02:53.443Z,7.78
2023-11-30T10:04:55.022Z,7.55
2023-11-30T10:06:57.514Z,7.45
2023-11-30T10:09:01.897Z,7.53
2023-11-30T10:11:03.505Z,7.65
2023-11-30T10:13:05.009Z,8.00
2023-11-30T10:15:09.334Z,7.05
2023-11-30T10:17:10.922Z,7.60
2023-11-30T10:19:12.555Z,8.77
2023-11-30T10:21:14.195Z,7.00
2023-11-30T10:23:16.085Z,7.53
2023-11-30T10:25:17.599Z,6.75
2023-11-30T10:27:21.192Z,7.88
2023-11-30T10:29:27.625Z,7.03
2023-11-30T10:31:31.982Z,6.63
2023-11-30T10:33:35.989Z,5.38
2023-11-30T10:35:37.558Z,6.30
2023-11-30T10:37:45.023Z,7.13
2023-11-30T10:39:52.773Z,6.57
2023-11-30T10:41:56.106Z,6.82
2023-11-30T10:43:59.022Z,7.03
2023-11-30T10:46:04.855Z,6.45
2023-11-30T10:48:11.779Z,5.90
2023-11-30T10:50:13.904Z,6.93
2023-11-30T10:52:16.953Z,5.07
2023-11-30T10:54:27.537Z,6.00
2023-11-30T10:56:30.085Z,6.30
2023-11-30T10:58:33.269Z,6.05
2023-11-30T11:00:35.764Z,6.32
2023-11-30T11:02:37.924Z,5.78
2023-11-30T11:04:41.571Z,5.72
2023-11-30T11:06:43.370Z,5.85
2023-11-30T11:09:01.126Z,7.03
2023-11-30T11:11:07.627Z,5.93
2023-11-30T11:13:09.131Z,7.15
2023-11-30T11:15:14.593Z,5.63
2023-11-30T11:17:21.205Z,6.55
2023-11-30T11:19:22.970Z,7.60
2023-11-30T11:21:27.137Z,6.22
2023-11-30T11:23:34.500Z,6.20
2023-11-30T11:25:36.681Z,6.78
2023-11-30T11:27:38.250Z,6.15
2023-11-30T11:29:44.917Z,5.95
2023-11-30T11:31:46.946Z,5.55
2023-11-30T11:33:49.684Z,6.47
2023-11-30T11:35:51.231Z,5.45
2023-11-30T11:37:57.334Z,4.63
2023-11-30T11:39:58.944Z,5.78
2023-11-30T11:42:00.468Z,4.68
2023-11-30T11:44:02.025Z,6.35
2023-11-30T11:46:03.667Z,6.07
2023-11-30T11:48:05.288Z,5.95
2023-11-30T11:50:07.508Z,7.40
2023-11-30T11:52:09.117Z,6.43
2023-11-30T11:54:18.312Z,6.70
2023-11-30T11:56:19.968Z,6.20
2023-11-30T11:58:21.691Z,5.40
2023-11-30T12:00:23.820Z,4.90
2023-11-30T12:02:25.428Z,5.22
2023-11-30T12:04:28.479Z,5.88
2023-11-30T12:06:30.583Z,5.15
2023-11-30T12:08:32.803Z,5.55
2023-11-30T12:10:38.233Z,5.55
2023-11-30T12:12:40.050Z,5.85
2023-11-30T12:14:41.541Z,6.30
2023-11-30T12:16:43.408Z,5.20
2023-11-30T12:18:45.228Z,5.38
2023-11-30T12:20:49.376Z,6.57
2023-11-30T12:22:51.642Z,5.38
2023-11-30T12:24:53.390Z,4.35
2023-11-30T12:26:56.213Z,4.60
2023-11-30T12:28:57.758Z,5.05
2023-11-30T12:30:59.294Z,5.60
2023-11-30T12:33:00.862Z,5.35
2023-11-30T12:35:03.392Z,6.03
2023-11-30T12:37:05.228Z,5.68
2023-11-30T12:39:07.643Z,6.32
2023-11-30T12:41:09.309Z,6.28
2023-11-30T12:43:12.457Z,4.63
2023-11-30T12:45:14.320Z,5.25
2023-11-30T12:47:16.313Z,5.57
2023-11-30T12:49:17.839Z,4.13
2023-11-30T12:51:19.423Z,5.43
2023-11-30T12:53:21.224Z,5.18
2023-11-30T12:55:22.963Z,5.78
2023-11-30T12:57:24.580Z,4.75
2023-11-30T12:59:27.484Z,4.75
2023-11-30T13:01:29.007Z,5.10
2023-11-30T13:03:30.673Z,4.70
2023-11-30T13:05:32.224Z,4.75
2023-11-30T13:07:33.757Z,5.10
2023-11-30T13:09:35.403Z,4.57
2023-11-30T13:11:37.000Z,5.47
2023-11-30T13:13:42.475Z,5.03
2023-11-30T13:15:48.177Z,5.38
2023-11-30T13:17:49.881Z,4.53
2023-11-30T13:19:51.598Z,4.82
2023-11-30T13:21:53.414Z,4.95
2023-11-30T13:23:55.040Z,4.47
2023-11-30T13:25:56.566Z,4.53
2023-11-30T13:27:58.236Z,3.90
2023-11-30T13:29:59.797Z,4.57
2023-11-30T13:32:02.750Z,4.97
2023-11-30T13:34:04.283Z,4.70
2023-11-30T13:36:06.916Z,4.20
2023-11-30T13:38:08.437Z,3.85
2023-11-30T13:40:10.630Z,4.60
2023-11-30T13:42:12.180Z,4.85
2023-11-30T13:44:13.876Z,5.15
2023-11-30T13:46:15.450Z,3.95
2023-11-30T13:48:18.717Z,4.38
2023-11-30T13:50:30.253Z,4.75
2023-11-30T13:52:38.103Z,4.03
2023-11-30T13:54:39.610Z,4.47
2023-11-30T13:56:41.263Z,4.63
2023-11-30T13:58:42.852Z,4.13
2023-11-30T14:00:44.497Z,4.38
2023-11-30T14:02:46.198Z,4.22
2023-11-30T14:04:49.089Z,4.32
2023-11-30T14:06:51.585Z,4.30
2023-11-30T14:08:53.116Z,4.00
2023-11-30T14:10:54.683Z,4.70
2023-11-30T14:12:56.290Z,3.65
2023-11-30T14:14:57.787Z,4.97
2023-11-30T14:16:59.438Z,5.57
2023-11-30T14:19:01.346Z,4.85
2023-11-30T14:21:04.697Z,4.35
2023-11-30T14:23:06.254Z,4.55
2023-11-30T14:25:07.942Z,5.20
2023-11-30T14:27:10.004Z,5.05
2023-11-30T14:29:11.522Z,3.60
2023-11-30T14:31:13.129Z,4.93
2023-11-30T14:33:14.790Z,4.88
2023-11-30T14:35:16.401Z,4.53
2023-11-30T14:37:19.271Z,3.97
2023-11-30T14:39:20.820Z,4.47
2023-11-30T14:41:22.426Z,4.38
2023-11-30T14:43:23.973Z,4.05
2023-11-30T14:45:25.544Z,4.10
2023-11-30T14:47:27.197Z,4.40
2023-11-30T14:49:28.733Z,3.70
2023-11-30T14:51:30.281Z,3.88
2023-11-30T14:53:33.160Z,3.78
2023-11-30T14:55:34.786Z,3.88
2023-11-30T14:57:36.357Z,4.28
2023-11-30T14:59:37.982Z,3.92
2023-11-30T15:01:39.931Z,4.13
2023-11-30T15:03:41.576Z,3.78
2023-11-30T15:05:43.344Z,3.72
2023-11-30T15:07:45.378Z,3.72
2023-11-30T15:09:48.240Z,3.50
2023-11-30T15:11:49.858Z,4.38
2023-11-30T15:13:51.452Z,4.03
2023-11-30T15:15:53.033Z,3.13
2023-11-30T15:17:54.601Z,3.88
2023-11-30T15:19:56.124Z,3.83
2023-11-30T15:21:57.661Z,4.22
2023-11-30T15:23:59.251Z,4.93
2023-11-30T15:26:02.254Z,4.70
2023-11-30T15:28:04.180Z,4.70
2023-11-30T15:30:06.884Z,5.40
2023-11-30T15:32:08.433Z,3.90
2023-11-30T15:34:09.979Z,4.13
2023-11-30T15:36:11.979Z,4.50
2023-11-30T15:38:13.493Z,3.17
2023-11-30T15:40:15.866Z,3.92
2023-11-30T15:42:18.756Z,4.03
2023-11-30T15:44:20.317Z,4.45
2023-11-30T15:46:21.827Z,4.05
2023-11-30T15:48:23.570Z,4.38
2023-11-30T15:50:25.233Z,4.00
2023-11-30T15:52:26.754Z,3.80
2023-11-30T15:54:28.296Z,4.63
2023-11-30T15:56:29.843Z,4.05
2023-11-30T15:58:32.703Z,3.42
2023-11-30T16:00:34.298Z,5.15
2023-11-30T16:02:36.141Z,4.07
2023-11-30T16:04:37.886Z,5.18
2023-11-30T16:06:39.475Z,4.60
2023-11-30T16:08:41.015Z,5.05
2023-11-30T16:10:42.554Z,5.00
2023-11-30T16:12:44.171Z,4.05
2023-11-30T16:14:47.089Z,3.35
2023-11-30T16:16:48.758Z,4.85
2023-11-30T16:18:50.680Z,4.38
2023-11-30T16:20:52.218Z,3.88
2023-11-30T16:22:54.220Z,4.68
2023-11-30T16:24:55.922Z,4.78
2023-11-30T16:26:57.681Z,4.20
2023-11-30T16:28:59.279Z,4.53
2023-11-30T16:31:02.229Z,4.47
2023-11-30T16:33:04.956Z,5.93
2023-11-30T16:35:07.112Z,4.70
2023-11-30T16:37:08.684Z,5.68
2023-11-30T16:39:10.259Z,4.45
2023-11-30T16:41:14.570Z,4.63
2023-11-30T16:43:16.470Z,4.80
2023-11-30T16:45:18.178Z,4.30
2023-11-30T16:47:21.468Z,6.20
2023-11-30T16:49:23.041Z,4.93
2023-11-30T16:51:25.576Z,4.00
2023-11-30T16:53:28.929Z,5.00
2023-11-30T16:55:31.201Z,5.45
2023-11-30T16:57:33.625Z,4.68
2023-11-30T16:59:36.895Z,4.43
2023-11-30T17:01:38.500Z,4.47
2023-11-30T17:03:41.597Z,4.50
2023-11-30T17:05:43.398Z,4.95
2023-11-30T17:07:45.777Z,3.30
2023-11-30T17:09:47.386Z,4.70
2023-11-30T17:11:48.968Z,5.13
2023-11-30T17:13:50.647Z,5.22
2023-11-30T17:15:52.198Z,4.75
2023-11-30T17:17:53.860Z,5.38
2023-11-30T17:19:56.886Z,5.05
2023-11-30T17:21:58.419Z,5.30
2023-11-30T17:23:59.944Z,5.18
2023-11-30T17:26:01.464Z,4.22
2023-11-30T17:28:03.008Z,5.40
2023-11-30T17:30:05.122Z,4.53
2023-11-30T17:32:07.361Z,5.97
2023-11-30T17:34:09.382Z,4.60
2023-11-30T17:36:12.788Z,6.60
2023-11-30T17:38:14.317Z,9.25
2023-11-30T17:40:16.068Z,7.93
2023-11-30T17:42:17.674Z,6.47
2023-11-30T17:44:19.335Z,5.97
2023-11-30T17:46:20.916Z,4.72
2023-11-30T17:48:22.488Z,5.53
2023-11-30T17:50:24.161Z,5.13
2023-11-30T17:52:27.027Z,5.25
2023-11-30T17:54:28.592Z,5.22
2023-11-30T17:56:30.205Z,5.60
2023-11-30T17:58:31.730Z,5.45
2023-11-30T18:00:33.489Z,4.53
2023-11-30T18:02:35.093Z,5.80
2023-11-30T18:04:36.606Z,5.38
2023-11-30T18:06:38.154Z,5.55
2023-11-30T18:08:41.088Z,5.82
2023-11-30T18:10:42.616Z,5.40
2023-11-30T18:12:44.198Z,4.78
2023-11-30T18:14:46.013Z,5.15
2023-11-30T18:16:47.678Z,4.47
2023-11-30T18:18:49.213Z,5.65
2023-11-30T18:20:50.756Z,5.43
2023-11-30T18:22:52.370Z,6.40
2023-11-30T18:24:55.433Z,7.15
2023-11-30T18:26:57.324Z,7.10
2023-11-30T18:28:58.822Z,7.03
2023-11-30T18:31:11.892Z,6.63
2023-11-30T18:33:21.585Z,6.25
2023-11-30T18:35:23.290Z,7.20
2023-11-30T18:37:24.808Z,6.18
2023-11-30T18:39:26.298Z,7.30
2023-11-30T18:41:29.207Z,6.85
2023-11-30T18:43:30.709Z,8.95
2023-11-30T18:45:32.229Z,8.25
2023-11-30T18:47:35.321Z,6.88
2023-11-30T18:49:36.828Z,7.53
2023-11-30T18:51:38.339Z,7.40
2023-11-30T18:53:39.898Z,6.93
2023-11-30T18:55:41.372Z,7.35
2023-11-30T18:57:44.289Z,7.75
2023-11-30T18:59:45.916Z,6.88
2023-11-30T19:01:48.216Z,7.15
2023-11-30T19:03:49.981Z,7.05
2023-11-30T19:05:51.593Z,6.85
2023-11-30T19:07:53.173Z,6.63
2023-11-30T19:09:55.116Z,7.82
2023-11-30T19:11:56.746Z,7.45
2023-11-30T19:13:59.616Z,8.95
2023-11-30T19:16:01.150Z,9.52
2023-11-30T19:18:02.885Z,8.85
2023-11-30T19:20:05.451Z,8.43
2023-11-30T19:22:07.085Z,10.23
2023-11-30T19:24:09.650Z,9.63
2023-11-30T19:26:11.179Z,9.07
2023-11-30T19:28:12.863Z,10.70
2023-11-30T19:30:16.172Z,10.52
2023-11-30T19:32:17.680Z,10.52
2023-11-30T19:34:19.250Z,11.38
2023-11-30T19:36:21.222Z,10.32
2023-11-30T19:38:22.961Z,11.05
2023-11-30T19:40:24.644Z,12.48
2023-11-30T19:42:26.333Z,10.00
2023-11-30T19:44:27.859Z,10.35
2023-11-30T19:46:30.790Z,9.57
2023-11-30T19:48:32.367Z,8.98
2023-11-30T19:50:33.887Z,7.97
2023-11-30T19:52:36.381Z,8.95
2023-11-30T19:54:39.506Z,8.93
2023-11-30T19:56:41.128Z,9.30
2023-11-30T19:58:42.996Z,8.07
2023-11-30T20:00:45.197Z,8.30
2023-11-30T20:02:48.485Z,7.72
2023-11-30T20:04:50.116Z,6.75
2023-11-30T20:06:51.639Z,7.72
2023-11-30T20:08:53.213Z,7.40
2023-11-30T20:10:54.901Z,7.97
2023-11-30T20:12:56.481Z,7.00
2023-11-30T20:14:58.502Z,7.15
2023-11-30T20:17:00.457Z,7.20
2023-11-30T20:19:03.366Z,6.45
2023-11-30T20:21:05.496Z,7.22
2023-11-30T20:23:07.080Z,5.00
2023-11-30T20:25:09.270Z,5.65
2023-11-30T20:27:10.841Z,7.28
2023-11-30T20:29:12.380Z,5.97
2023-11-30T20:31:14.010Z,6.40
2023-11-30T20:33:15.527Z,6.38
2023-11-30T20:35:18.405Z,6.00
2023-11-30T20:37:19.919Z,6.50
2023-11-30T20:39:21.464Z,7.63
2023-11-30T20:41:23.029Z,8.52
2023-11-30T20:43:24.627Z,7.45
2023-11-30T20:45:26.180Z,7.82
2023-11-30T20:47:27.890Z,9.13
2023-11-30T20:49:29.571Z,10.20
2023-11-30T20:51:32.884Z,9.88
2023-11-30T20:53:34.659Z,11.02
2023-11-30T20:55:36.188Z,10.43
2023-11-30T20:57:37.712Z,12.10
2023-11-30T20:59:40.016Z,10.30
2023-11-30T21:01:43.430Z,10.95
2023-11-30T21:03:45.126Z,12.02
2023-11-30T21:05:47.044Z,13.60
2023-11-30T21:07:51.361Z,11.38
2023-11-30T21:09:52.931Z,11.63
2023-11-30T21:11:54.451Z,11.23
2023-11-30T21:13:56.089Z,13.20
2023-11-30T21:15:57.727Z,11.55
2023-11-30T21:17:59.501Z,13.07
2023-11-30T21:20:03.606Z,12.55
2023-11-30T21:24:08.608Z,11.45
2023-11-30T21:26:10.150Z,9.88
2023-11-30T21:28:12.156Z,11.20
2023-11-30T21:30:13.847Z,12.80
2023-11-30T21:32:15.399Z,11.63
2023-11-30T21:34:16.910Z,11.52
2023-11-30T21:36:18.433Z,11.98
2023-11-30T21:38:19.948Z,10.55
2023-11-30T21:40:22.846Z,11.95
2023-11-30T21:42:24.718Z,10.40
2023-11-30T21:44:26.774Z,11.20
2023-11-30T21:46:28.253Z,10.32
2023-11-30T21:48:29.892Z,11.73
2023-11-30T21:50:31.603Z,11.90
2023-11-30T21:52:33.147Z,12.10
2023-11-30T21:54:34.832Z,11.10
2023-11-30T21:56:37.752Z,11.25
2023-11-30T21:58:39.433Z,11.50
2023-11-30T22:00:41.056Z,11.60
2023-11-30T22:02:43.931Z,13.55
2023-11-30T22:04:45.545Z,13.02
2023-11-30T22:06:47.290Z,13.55
2023-11-30T22:08:48.920Z,13.55
2023-11-30T22:10:50.484Z,14.65
2023-11-30T22:12:53.430Z,13.65
2023-11-30T22:14:54.954Z,12.70
2023-11-30T22:16:56.524Z,12.13
2023-11-30T22:18:58.133Z,11.80
2023-11-30T22:20:59.726Z,12.52
2023-11-30T22:23:01.536Z,10.48
2023-11-30T22:25:03.185Z,12.30
2023-11-30T22:27:05.404Z,12.13
2023-11-30T22:29:08.252Z,11.57
2023-11-30T22:31:15.356Z,10.48
2023-11-30T22:33:16.899Z,11.48
2023-11-30T22:35:18.599Z,11.15
2023-11-30T22:37:20.268Z,11.60
2023-11-30T22:39:21.893Z,10.90
2023-11-30T22:41:23.806Z,10.93
2023-11-30T22:43:26.369Z,12.13
2023-11-30T22:45:29.496Z,10.27
2023-11-30T22:47:31.168Z,11.30
2023-11-30T22:49:32.809Z,9.82
2023-11-30T22:51:34.565Z,10.40
2023-11-30T22:53:38.082Z,10.23
2023-11-30T22:55:39.753Z,9.43
2023-11-30T22:57:41.410Z,11.60
2023-11-30T22:59:43.064Z,8.93
2023-11-30T23:01:46.170Z,11.10
2023-11-30T23:03:48.377Z,10.85
2023-11-30T23:05:50.026Z,11.60
2023-11-30T23:07:51.528Z,10.85
2023-11-30T23:09:53.157Z,8.57
2023-11-30T23:11:54.691Z,9.20
2023-11-30T23:13:56.227Z,11.10
2023-11-30T23:15:57.768Z,11.43
2023-11-30T23:18:00.670Z,10.75
2023-11-30T23:20:02.372Z,10.23
2023-11-30T23:22:04.334Z,10.13
2023-11-30T23:24:06.603Z,10.50
2023-11-30T23:26:08.526Z,10.95
2023-11-30T23:28:10.190Z,11.10
2023-11-30T23:30:12.206Z,12.23
2023-11-30T23:32:13.925Z,11.90
2023-11-30T23:34:16.767Z,12.40
2023-11-30T23:36:18.343Z,12.45
2023-11-30T23:38:19.842Z,10.93
2023-11-30T23:40:21.376Z,11.93
2023-11-30T23:42:23.203Z,12.27
2023-11-30T23:44:25.330Z,11.98
2023-11-30T23:46:28.371Z,11.35
2023-11-30T23:48:30.692Z,13.70
2023-11-30T23:50:33.570Z,12.75
2023-11-30T23:52:35.319Z,12.05
2023-11-30T23:54:36.885Z,12.20
2023-11-30T23:56:38.404Z,11.65
2023-11-30T23:58:39.962Z,11.68
